Time;durP1;ratioP1;P1;durP2;ratioP2;P2;SDS_P1;SDS_P2;PMS_P1;PMS_P2;Temp;Humidity;BMP_temperature;BMP_pressure;BME280_temperature;BME280_humidity;BME280_pressure;Samples;Min_cycle;Max_cycle;Signal;HPM_P1;HPM_P2
2023/08/18 00:01:02;;;;;;;;;28.00;23.00;;;;;24.21;61.07;101062.59;4995832;28;45292;-44
2023/08/18 00:03:27;;;;;;;;;27.50;24.00;;;;;24.20;61.36;101058.22;4995988;28;45293;-47
2023/08/18 00:05:53;;;;;;;;;24.25;22.50;;;;;24.20;61.41;101057.41;4995449;28;46323;-46
2023/08/18 00:08:18;;;;;;;;;24.75;21.00;;;;;24.17;61.77;101052.41;4995429;28;45382;-47
2023/08/18 00:10:44;;;;;;;;;26.50;24.75;;;;;24.14;61.77;101051.81;4998537;28;45456;-47
2023/08/18 00:13:09;;;;;;;;;29.50;27.00;;;;;24.17;61.03;101052.41;4999324;28;45296;-45
2023/08/18 00:15:34;;;;;;;;;25.00;22.50;;;;;24.11;61.40;101044.13;4998995;28;45822;-45
2023/08/18 00:17:59;;;;;;;;;24.75;22.50;;;;;24.11;62.41;101046.84;4998911;28;45477;-45
2023/08/18 00:20:25;;;;;;;;;27.75;24.75;;;;;24.05;61.76;101042.28;4998893;28;45361;-47
2023/08/18 00:22:50;;;;;;;;;22.50;21.00;;;;;24.03;61.95;101044.44;4998864;28;45453;-50
2023/08/18 00:25:16;;;;;;;;;27.25;25.00;;;;;24.04;61.83;101056.13;4998794;28;46222;-49
2023/08/18 00:27:41;;;;;;;;;27.25;25.50;;;;;24.01;62.11;101049.25;4998673;28;45266;-45
2023/08/18 00:30:07;;;;;;;;;27.75;24.75;;;;;24.01;62.26;101051.13;4998980;28;45465;-48
2023/08/18 00:32:33;;;;;;;;;26.25;23.25;;;;;23.97;62.77;101048.03;4999268;28;45434;-46
2023/08/18 00:34:58;;;;;;;;;25.50;23.50;;;;;23.95;62.39;101044.72;4998490;28;47207;-47
2023/08/18 00:37:24;;;;;;;;;30.25;20.75;;;;;23.94;62.94;101047.69;4998634;28;45343;-50
2023/08/18 00:39:49;;;;;;;;;25.00;23.50;;;;;23.92;62.36;101045.19;4998908;28;45262;-47
2023/08/18 00:42:14;;;;;;;;;24.00;22.25;;;;;23.87;62.92;101040.44;4998895;28;45534;-49
2023/08/18 00:44:40;;;;;;;;;28.50;22.75;;;;;23.85;62.92;101039.00;4998578;28;46152;-46
2023/08/18 00:47:06;;;;;;;;;27.50;23.50;;;;;23.81;63.46;101035.09;4998171;28;54101;-51
2023/08/18 00:49:31;;;;;;;;;29.75;23.25;;;;;23.74;63.39;101028.91;4998742;28;45266;-45
2023/08/18 00:51:57;;;;;;;;;28.00;27.50;;;;;23.77;63.22;101037.44;4998928;28;45205;-47
2023/08/18 00:54:25;;;;;;;;;26.50;25.75;;;;;23.75;63.69;101039.53;4998401;28;46078;-51
2023/08/18 00:56:50;;;;;;;;;24.75;20.75;;;;;23.74;63.32;101040.59;4998348;28;45425;-49
2023/08/18 00:59:15;;;;;;;;;28.50;23.75;;;;;23.70;63.77;101033.13;4998330;28;45774;-48
2023/08/18 01:01:42;;;;;;;;;25.50;23.00;;;;;23.64;63.52;101030.22;4998893;28;45424;-48
2023/08/18 01:04:08;;;;;;;;;29.00;22.50;;;;;23.63;64.33;101025.00;4998210;28;45433;-47
2023/08/18 01:06:33;;;;;;;;;29.25;22.75;;;;;23.61;64.49;101032.56;4998346;28;45330;-49
2023/08/18 01:08:59;;;;;;;;;29.50;24.50;;;;;23.61;64.36;101035.28;4998421;28;45480;-48
2023/08/18 01:11:37;;;;;;;;;25.00;23.00;;;;;23.58;63.81;101027.56;4998157;28;45590;-47
2023/08/18 01:14:26;;;;;;;;;20.75;20.25;;;;;23.52;64.65;101021.19;4998017;28;45405;-48
2023/08/18 01:16:59;;;;;;;;;30.50;24.25;;;;;23.55;64.38;101033.44;4997896;28;45529;-47
2023/08/18 01:19:26;;;;;;;;;28.75;24.00;;;;;23.55;64.46;101028.03;4998416;28;45417;-44
2023/08/18 01:21:55;;;;;;;;;30.25;25.75;;;;;23.51;65.42;101022.22;4997160;28;45505;-45
2023/08/18 01:24:24;;;;;;;;;30.75;22.50;;;;;23.45;65.14;101004.13;4997884;28;46361;-46
2023/08/18 01:26:51;;;;;;;;;31.25;27.00;;;;;23.49;64.94;101015.34;4997827;28;45481;-44
2023/08/18 01:29:17;;;;;;;;;31.75;25.50;;;;;23.47;65.34;101018.31;4998073;28;45449;-46
2023/08/18 01:31:43;;;;;;;;;26.00;24.00;;;;;23.46;65.68;101021.22;4998219;28;45394;-46
2023/08/18 01:34:15;;;;;;;;;28.25;23.25;;;;;23.40;65.58;101015.66;4997791;28;46220;-48
2023/08/18 01:36:44;;;;;;;;;30.25;28.00;;;;;23.42;65.48;101018.13;4997874;28;45417;-48
2023/08/18 01:39:12;;;;;;;;;29.50;24.00;;;;;23.41;65.82;101021.91;4997638;28;45486;-48
2023/08/18 01:41:39;;;;;;;;;31.25;24.75;;;;;23.38;65.29;101012.31;4998053;28;45516;-48
2023/08/18 01:44:07;;;;;;;;;26.25;24.25;;;;;23.38;65.89;101017.75;4997767;28;46455;-48
2023/08/18 01:46:33;;;;;;;;;26.50;23.50;;;;;23.36;66.25;101017.16;4997578;28;45926;-49
2023/08/18 01:48:58;;;;;;;;;28.50;23.50;;;;;23.38;66.29;101012.31;4997810;28;45309;-49
2023/08/18 01:51:23;;;;;;;;;25.50;25.00;;;;;23.35;66.34;101007.34;4997695;28;45456;-49
2023/08/18 01:53:49;;;;;;;;;27.25;25.25;;;;;23.36;65.72;101014.44;4997687;28;46317;-45
2023/08/18 01:56:14;;;;;;;;;35.50;28.25;;;;;23.35;66.32;101009.25;4997327;28;45248;-50
2023/08/18 01:58:40;;;;;;;;;21.00;18.25;;;;;23.35;66.76;101001.09;4997726;28;45349;-47
2023/08/18 02:01:05;;;;;;;;;36.50;27.75;;;;;23.32;66.50;100996.13;4997609;28;45507;-47
2023/08/18 02:03:31;;;;;;;;;26.50;24.25;;;;;23.28;66.86;100997.63;4997351;28;45333;-46
2023/08/18 02:05:57;;;;;;;;;28.00;23.50;;;;;23.30;66.80;100999.06;4997588;28;45328;-47
2023/08/18 02:08:23;;;;;;;;;32.75;25.75;;;;;23.29;66.96;101001.97;4997383;28;45417;-45
2023/08/18 02:10:48;;;;;;;;;29.00;24.75;;;;;23.26;67.15;100997.00;4997439;28;45341;-45
2023/08/18 02:13:14;;;;;;;;;30.50;24.75;;;;;23.24;66.88;100993.69;4996976;28;45388;-47
2023/08/18 02:15:39;;;;;;;;;32.25;25.00;;;;;23.20;67.16;100989.75;4996958;28;45349;-44
2023/08/18 02:18:05;;;;;;;;;26.00;25.00;;;;;23.25;67.18;100995.34;4997175;28;45448;-43
2023/08/18 02:20:31;;;;;;;;;27.25;23.25;;;;;23.23;67.17;100983.91;4997291;28;45519;-45
2023/08/18 02:22:56;;;;;;;;;24.00;19.75;;;;;23.21;67.45;100984.09;4997056;28;46067;-48
2023/08/18 02:25:22;;;;;;;;;23.25;22.75;;;;;23.16;67.53;100982.06;4996970;28;45536;-46
2023/08/18 02:27:48;;;;;;;;;26.00;24.75;;;;;23.22;67.84;100993.94;4997101;28;45297;-47
2023/08/18 02:30:13;;;;;;;;;34.25;25.25;;;;;23.22;67.84;100995.78;4997187;28;45471;-45
2023/08/18 02:32:39;;;;;;;;;24.25;23.25;;;;;23.19;67.74;100997.06;4978845;28;45513;-48
2023/08/18 02:35:04;;;;;;;;;24.25;23.75;;;;;23.20;67.74;100993.31;4995857;28;45462;-48
2023/08/18 02:37:30;;;;;;;;;36.50;27.50;;;;;23.16;67.67;100984.78;4997011;28;45377;-45
2023/08/18 02:39:55;;;;;;;;;29.50;26.50;;;;;23.19;68.12;100991.66;4997551;28;45286;-45
2023/08/18 02:42:20;;;;;;;;;35.00;26.75;;;;;23.20;67.98;100981.63;4996635;28;46104;-48
2023/08/18 02:44:46;;;;;;;;;34.25;29.00;;;;;23.19;67.69;100988.13;4996834;28;45444;-47
2023/08/18 02:47:13;;;;;;;;;28.50;27.00;;;;;23.16;67.58;100986.66;4996681;28;45341;-48
2023/08/18 02:49:38;;;;;;;;;29.75;25.75;;;;;23.13;67.68;100970.81;4997075;28;45518;-47
2023/08/18 02:52:04;;;;;;;;;26.50;23.75;;;;;23.07;68.18;100966.31;4996066;28;45435;-50
2023/08/18 02:54:29;;;;;;;;;32.25;25.25;;;;;23.09;67.83;100975.88;4996869;28;45357;-46
2023/08/18 02:56:55;;;;;;;;;26.00;22.00;;;;;23.08;68.05;100973.38;4996598;28;45489;-45
2023/08/18 02:59:20;;;;;;;;;32.25;26.50;;;;;23.08;68.14;100973.38;4996975;28;45541;-45
2023/08/18 03:01:45;;;;;;;;;22.50;21.00;;;;;23.10;68.09;100971.28;4996467;28;46033;-47
2023/08/18 03:04:14;;;;;;;;;30.25;26.00;;;;;23.07;68.42;100969.84;4996658;28;45239;-48
2023/08/18 03:06:39;;;;;;;;;29.75;25.75;;;;;23.07;68.42;100969.00;4996615;28;45471;-44
2023/08/18 03:09:05;;;;;;;;;34.25;29.50;;;;;23.03;68.82;100960.50;4996528;28;45283;-46
2023/08/18 03:11:30;;;;;;;;;28.25;26.75;;;;;23.05;68.50;100957.53;4996399;28;47269;-46
2023/08/18 03:13:56;;;;;;;;;33.25;26.25;;;;;23.04;68.73;100956.72;4996543;28;45298;-45
2023/08/18 03:16:21;;;;;;;;;32.75;27.00;;;;;23.03;68.90;100954.22;4996520;28;45274;-46
2023/08/18 03:18:46;;;;;;;;;30.75;27.25;;;;;23.00;68.88;100955.50;4996614;28;45483;-46
2023/08/18 03:21:12;;;;;;;;;31.50;26.25;;;;;23.00;68.84;100958.22;4995843;28;45370;-43
2023/08/18 03:23:37;;;;;;;;;33.00;29.75;;;;;22.97;68.47;100945.13;4996218;28;45510;-47
2023/08/18 03:26:04;;;;;;;;;32.00;25.00;;;;;22.92;68.96;100942.22;4996216;28;45456;-46
2023/08/18 03:28:37;;;;;;;;;30.00;27.25;;;;;22.92;69.23;100947.66;4996667;28;45278;-50
2023/08/18 03:31:06;;;;;;;;;25.25;23.50;;;;;22.94;69.36;100948.28;4996018;28;47297;-48
2023/08/18 03:33:32;;;;;;;;;31.00;26.00;;;;;22.91;69.24;100946.81;4996097;28;45489;-48
2023/08/18 03:35:58;;;;;;;;;34.75;30.50;;;;;22.90;69.58;100945.16;4996447;28;45379;-45
2023/08/18 03:38:24;;;;;;;;;27.00;27.00;;;;;22.86;69.70;100943.09;4996296;28;45385;-45
2023/08/18 03:40:55;;;;;;;;;29.25;24.75;;;;;22.88;69.19;100946.41;4996072;28;46550;-50
2023/08/18 03:43:21;;;;;;;;;36.75;27.50;;;;;22.84;69.42;100947.94;4995791;28;45492;-46
2023/08/18 03:45:46;;;;;;;;;32.75;26.50;;;;;22.82;69.77;100950.00;4999305;28;45430;-43
2023/08/18 03:48:12;;;;;;;;;28.00;27.25;;;;;22.81;70.03;100953.78;4999882;28;45337;-45
2023/08/18 03:50:38;;;;;;;;;29.25;26.25;;;;;22.78;69.70;100938.78;4999391;28;47627;-44
2023/08/18 03:53:04;;;;;;;;;30.75;24.25;;;;;22.76;69.76;100927.34;4999428;28;45459;-47
2023/08/18 03:55:29;;;;;;;;;32.00;25.75;;;;;22.76;70.26;100929.22;4999580;28;45293;-45
2023/08/18 03:57:54;;;;;;;;;28.75;26.50;;;;;22.69;70.23;100920.31;4999464;28;45690;-46
2023/08/18 04:00:19;;;;;;;;;30.50;26.75;;;;;22.73;70.46;100933.19;4999070;28;46409;-46
2023/08/18 04:02:45;;;;;;;;;31.50;27.00;;;;;22.70;70.30;100941.75;4999159;28;45776;-46
2023/08/18 04:05:10;;;;;;;;;28.50;25.50;;;;;22.70;70.44;100938.22;4999305;28;45389;-45
2023/08/18 04:07:36;;;;;;;;;29.50;25.50;;;;;22.67;70.65;100937.63;4999464;28;45280;-46
2023/08/18 04:10:01;;;;;;;;;29.50;28.00;;;;;22.72;70.38;100942.38;4999189;28;46090;-49
2023/08/18 04:12:27;;;;;;;;;30.50;26.25;;;;;22.70;70.35;100943.66;4998842;28;45202;-46
2023/08/18 04:14:52;;;;;;;;;31.25;26.75;;;;;22.67;70.12;100940.34;4999160;28;45407;-45
2023/08/18 04:17:17;;;;;;;;;33.75;28.25;;;;;22.66;70.53;100940.56;4999293;28;45413;-45
2023/08/18 04:19:43;;;;;;;;;29.75;29.00;;;;;22.65;70.73;100945.16;4998826;28;45352;-44
2023/08/18 04:22:08;;;;;;;;;29.00;25.25;;;;;22.64;70.68;100943.50;4998758;28;46132;-42
2023/08/18 04:24:33;;;;;;;;;32.75;29.00;;;;;22.62;70.89;100940.16;4999107;28;45345;-45
2023/08/18 04:26:59;;;;;;;;;29.25;27.25;;;;;22.64;71.35;100934.53;4999328;28;45509;-45
2023/08/18 04:29:28;;;;;;;;;34.75;29.00;;;;;22.63;71.12;100932.88;4998543;28;45358;-47
2023/08/18 04:31:53;;;;;;;;;31.00;29.25;;;;;22.63;71.30;100935.59;4998832;28;45283;-48
2023/08/18 04:34:19;;;;;;;;;34.25;27.25;;;;;22.63;71.30;100933.72;4998963;28;45484;-46
2023/08/18 04:36:44;;;;;;;;;33.25;24.50;;;;;22.54;71.51;100913.31;4998925;28;45416;-50
2023/08/18 04:39:13;;;;;;;;;28.50;26.75;;;;;22.61;71.22;100929.53;4998633;28;45377;-45
2023/08/18 04:41:38;;;;;;;;;31.75;26.00;;;;;22.57;71.44;100920.19;4998517;28;45627;-48
2023/08/18 04:44:04;;;;;;;;;28.75;23.75;;;;;22.56;71.32;100919.38;4998894;28;45311;-45
2023/08/18 04:46:30;;;;;;;;;27.50;25.50;;;;;22.59;71.79;100924.34;4998958;28;45329;-47
2023/08/18 04:48:56;;;;;;;;;67.33;53.00;;;;;22.54;71.91;100907.91;4998275;28;45467;-45
2023/08/18 04:51:21;;;;;;;;;48.00;36.67;;;;;22.58;71.73;100921.84;4998469;28;45807;-47
2023/08/18 04:53:46;;;;;;;;;39.67;34.33;;;;;22.60;71.85;100925.19;4998674;28;45271;-47
2023/08/18 04:56:12;;;;;;;;;27.25;23.50;;;;;22.62;71.88;100925.78;4995872;28;45566;-47
2023/08/18 04:58:37;;;;;;;;;24.25;23.25;;;;;22.64;71.77;100929.13;4998309;28;46581;-49
2023/08/18 05:01:04;;;;;;;;;27.75;27.75;;;;;22.64;72.09;100927.22;4998387;28;45385;-50
2023/08/18 05:03:30;;;;;;;;;29.75;24.50;;;;;22.67;71.94;100925.97;4998509;28;45357;-47
2023/08/18 05:06:00;;;;;;;;;28.50;24.50;;;;;22.69;71.44;100923.84;4998640;28;45378;-48
2023/08/18 05:08:29;;;;;;;;;31.50;28.00;;;;;22.70;71.49;100922.78;4998260;28;45448;-48
2023/08/18 05:10:58;;;;;;;;;31.25;26.50;;;;;22.72;71.41;100925.28;4998315;28;45302;-48
2023/08/18 05:13:24;;;;;;;;;30.50;27.75;;;;;22.75;71.61;100924.81;4998281;28;45430;-47
2023/08/18 05:15:49;;;;;;;;;32.75;28.00;;;;;22.74;71.35;100918.56;4997187;28;45447;-49
2023/08/18 05:18:14;;;;;;;;;29.25;23.75;;;;;22.74;71.79;100917.75;4998105;28;45525;-45
2023/08/18 05:20:40;;;;;;;;;33.50;26.75;;;;;22.77;71.51;100912.72;4997868;28;45349;-49
2023/08/18 05:23:05;;;;;;;;;34.00;24.25;;;;;22.78;71.72;100913.53;4998089;28;45402;-47
2023/08/18 05:25:31;;;;;;;;;31.50;26.00;;;;;22.82;71.56;100909.34;4998325;28;45531;-46
2023/08/18 05:27:57;;;;;;;;;28.75;26.50;;;;;22.83;71.61;100906.38;4997698;28;47592;-47
2023/08/18 05:30:22;;;;;;;;;27.75;27.25;;;;;22.86;71.31;100905.94;4998036;28;45438;-44
2023/08/18 05:32:47;;;;;;;;;29.75;27.00;;;;;22.85;71.63;100898.88;4998126;28;45364;-48
2023/08/18 05:35:13;;;;;;;;;36.67;30.00;;;;;22.94;71.59;100906.75;4998278;28;45354;-47
2023/08/18 05:37:38;;;;;;;;;26.50;24.50;;;;;22.97;71.62;100898.16;4997752;28;45326;-48
2023/08/18 05:40:04;;;;;;;;;25.25;23.00;;;;;23.04;71.30;100902.44;4997407;28;50202;-45
2023/08/18 05:42:30;;;;;;;;;39.25;29.50;;;;;23.09;70.96;100897.19;4998090;28;45446;-49
2023/08/18 05:44:55;;;;;;;;;30.50;26.25;;;;;23.15;71.18;100900.88;4997902;28;45416;-46
2023/08/18 05:47:20;;;;;;;;;33.25;28.00;;;;;23.20;70.98;100897.50;4997758;28;46484;-46
2023/08/18 05:49:45;;;;;;;;;36.75;31.75;;;;;23.25;70.71;100903.06;4997528;28;45393;-44
2023/08/18 05:52:11;;;;;;;;;31.00;26.75;;;;;23.29;70.59;100902.38;4997808;28;45354;-44
2023/08/18 05:54:36;;;;;;;;;28.75;26.75;;;;;23.33;70.60;100905.47;4997651;28;45370;-47
2023/08/18 05:57:03;;;;;;;;;29.25;26.50;;;;;23.39;69.98;100908.13;4997289;28;46210;-46
2023/08/18 05:59:31;;;;;;;;;30.75;27.50;;;;;23.45;70.45;100898.22;4997362;28;45354;-47
2023/08/18 06:01:56;;;;;;;;;25.50;24.75;;;;;23.51;70.07;100910.06;4997384;28;45397;-46
2023/08/18 06:04:22;;;;;;;;;28.75;24.50;;;;;23.62;70.17;100899.25;4997616;28;45415;-44
2023/08/18 06:06:47;;;;;;;;;39.25;32.25;;;;;23.79;69.26;100906.81;4996278;28;46453;-45
2023/08/18 06:09:13;;;;;;;;;65.00;49.00;;;;;23.93;68.91;100900.09;4997120;28;45714;-48
2023/08/18 06:11:38;;;;;;;;;37.00;33.50;;;;;24.08;68.55;100895.09;4997263;28;45478;-48
2023/08/18 06:14:03;;;;;;;;;33.25;27.25;;;;;24.20;67.94;100900.56;4997380;28;45444;-46
2023/08/18 06:16:29;;;;;;;;;27.25;25.75;;;;;24.28;67.71;100885.81;4997184;28;46618;-45
2023/08/18 06:18:54;;;;;;;;;34.75;26.75;;;;;24.36;67.44;100890.91;4996753;28;45567;-46
2023/08/18 06:21:19;;;;;;;;;27.50;23.25;;;;;24.38;67.79;100895.06;4997144;28;45424;-47
2023/08/18 06:23:45;;;;;;;;;30.50;26.50;;;;;24.39;67.80;100894.00;4995833;28;45437;-46
2023/08/18 06:26:10;;;;;;;;;24.75;21.25;;;;;24.37;67.96;100892.56;4996835;28;46441;-46
2023/08/18 06:28:35;;;;;;;;;25.75;25.50;;;;;24.35;67.61;100892.78;4996808;28;45402;-46
2023/08/18 06:31:05;;;;;;;;;31.25;27.50;;;;;24.35;67.72;100887.31;4997335;28;45446;-47
2023/08/18 06:33:31;;;;;;;;;17.25;17.00;;;;;24.40;67.61;100878.53;4997414;28;45378;-46
2023/08/18 06:35:57;;;;;;;;;23.75;23.75;;;;;24.44;67.75;100882.44;4995478;28;46221;-48
2023/08/18 06:38:22;;;;;;;;;45.33;36.00;;;;;24.49;67.03;100885.28;4996684;28;45400;-45
2023/08/18 06:40:48;;;;;;;;;27.25;24.75;;;;;24.57;67.36;100884.09;4996504;28;45412;-45
2023/08/18 06:43:13;;;;;;;;;32.25;24.25;;;;;24.63;67.24;100894.84;4997018;28;45402;-47
2023/08/18 06:45:39;;;;;;;;;27.75;25.50;;;;;24.71;66.92;100895.56;4995348;28;46465;-48
2023/08/18 06:48:04;;;;;;;;;29.25;25.75;;;;;24.81;67.13;100896.63;4996746;28;45408;-42
2023/08/18 06:50:29;;;;;;;;;29.25;25.75;;;;;24.87;66.49;100892.13;4996813;28;45371;-43
2023/08/18 06:52:55;;;;;;;;;25.50;21.00;;;;;24.97;66.97;100888.81;4996785;28;45476;-44
2023/08/18 06:55:20;;;;;;;;;27.00;26.00;;;;;25.06;66.47;100888.19;4996485;28;46321;-45
2023/08/18 06:57:45;;;;;;;;;29.50;23.75;;;;;25.10;66.13;100880.41;4996384;28;45379;-45
2023/08/18 07:00:11;;;;;;;;;29.75;27.50;;;;;25.24;65.75;100886.41;4996650;28;45333;-42
2023/08/18 07:02:37;;;;;;;;;30.75;25.50;;;;;25.35;65.33;100886.38;4996547;28;45315;-44
2023/08/18 07:05:05;;;;;;;;;23.25;22.50;;;;;25.52;64.59;100893.81;4996185;28;46657;-45
2023/08/18 07:07:31;;;;;;;;;22.80;21.40;;;;;25.68;64.41;100897.66;4996524;28;45323;-45
2023/08/18 07:09:56;;;;;;;;;26.50;21.75;;;;;25.75;64.34;100898.34;4996249;28;46024;-46
2023/08/18 07:12:21;;;;;;;;;30.75;25.00;;;;;25.81;63.59;100897.41;4996609;28;45313;-46
2023/08/18 07:14:47;;;;;;;;;29.50;20.25;;;;;25.81;63.54;100900.13;4996103;28;45955;-43
2023/08/18 07:17:12;;;;;;;;;29.00;24.00;;;;;25.74;64.30;100894.78;4995586;28;45620;-48
2023/08/18 07:19:37;;;;;;;;;27.75;20.25;;;;;25.72;63.99;100896.09;4995136;28;45464;-47
2023/08/18 07:22:04;;;;;;;;;31.25;27.75;;;;;25.70;64.36;100890.06;4996146;28;45369;-46
2023/08/18 07:24:30;;;;;;;;;24.75;22.75;;;;;25.67;64.13;100901.47;4996024;28;47123;-46
2023/08/18 07:26:55;;;;;;;;;25.50;21.50;;;;;25.61;64.66;100898.63;4995994;28;45467;-44
2023/08/18 07:29:20;;;;;;;;;26.25;21.00;;;;;25.56;64.42;100900.41;4995936;28;45687;-47
2023/08/18 07:31:46;;;;;;;;;27.50;23.50;;;;;25.53;64.86;100899.00;4996340;28;45355;-47
2023/08/18 07:34:11;;;;;;;;;25.00;23.50;;;;;25.53;65.37;100904.44;4995882;28;46641;-46
2023/08/18 07:36:38;;;;;;;;;27.25;20.25;;;;;25.57;65.01;100905.63;4996135;28;45785;-47
2023/08/18 07:39:04;;;;;;;;;29.80;24.40;;;;;25.57;65.48;100905.63;4996190;28;45412;-46
2023/08/18 07:41:29;;;;;;;;;27.00;21.50;;;;;25.60;64.84;100905.13;4996147;28;45557;-44
2023/08/18 07:43:55;;;;;;;;;28.00;23.50;;;;;25.73;64.90;100904.03;4995768;28;45474;-47
2023/08/18 07:46:21;;;;;;;;;27.75;22.75;;;;;25.90;64.45;100901.38;4995910;28;45492;-42
2023/08/18 07:48:46;;;;;;;;;24.00;21.25;;;;;26.02;63.56;100907.59;4995975;28;45507;-47
2023/08/18 07:51:11;;;;;;;;;21.75;19.75;;;;;26.21;63.10;100910.09;4996099;28;45421;-44
2023/08/18 07:53:37;;;;;;;;;21.00;21.00;;;;;26.36;63.00;100913.09;4995492;28;46373;-45
2023/08/18 07:56:03;;;;;;;;;25.00;21.25;;;;;26.69;62.17;100911.47;4995843;28;45291;-46
2023/08/18 07:58:28;;;;;;;;;20.60;20.00;;;;;27.00;61.58;100907.28;4995768;28;45689;-45
2023/08/18 08:00:56;;;;;;;;;26.25;23.00;;;;;27.40;60.18;100898.84;4995901;28;45517;-45
2023/08/18 08:03:22;;;;;;;;;24.80;18.60;;;;;27.78;59.05;100908.88;4995393;28;46199;-44
2023/08/18 08:05:47;;;;;;;;;21.25;21.25;;;;;27.90;58.38;100911.44;4995444;28;45217;-45
2023/08/18 08:08:13;;;;;;;;;26.75;21.75;;;;;28.03;58.33;100911.03;4995883;28;45386;-42
2023/08/18 08:10:38;;;;;;;;;26.75;25.00;;;;;28.64;56.70;100913.47;4995636;28;45311;-45
2023/08/18 08:13:04;;;;;;;;;24.75;21.50;;;;;29.35;55.25;100915.84;4995120;28;45500;-45
2023/08/18 08:15:29;;;;;;;;;27.00;22.50;;;;;31.05;50.84;100902.84;4995493;28;45381;-46
2023/08/18 08:17:56;;;;;;;;;20.00;18.25;;;;;33.44;45.79;100918.69;4995577;28;45251;-45
2023/08/18 08:20:21;;;;;;;;;20.80;18.20;;;;;35.54;41.99;100890.25;4995640;28;45572;-45
2023/08/18 08:22:48;;;;;;;;;23.75;18.75;;;;;37.01;42.43;100904.34;4994988;28;46449;-45
2023/08/18 08:25:14;;;;;;;;;24.00;19.20;;;;;37.28;38.64;100889.41;4995409;28;45407;-44
2023/08/18 08:27:40;;;;;;;;;23.00;20.00;;;;;37.32;37.97;100902.28;4995542;28;45303;-45
2023/08/18 08:30:08;;;;;;;;;21.80;17.00;;;;;38.00;36.95;100908.28;4996081;28;45522;-45
2023/08/18 08:32:34;;;;;;;;;24.00;19.00;;;;;38.15;36.64;100901.41;4998626;28;46631;-45
2023/08/18 08:34:59;;;;;;;;;18.75;17.00;;;;;38.09;36.37;100909.09;4998738;28;45338;-47
2023/08/18 08:37:25;;;;;;;;;19.50;16.50;;;;;39.00;35.67;100904.31;4998654;28;45346;-46
2023/08/18 08:39:50;;;;;;;;;17.50;16.00;;;;;39.75;33.84;100906.50;4998861;28;45270;-45
2023/08/18 08:42:16;;;;;;;;;21.25;16.25;;;;;40.04;34.46;100888.88;4998367;28;46127;-45
2023/08/18 08:44:42;;;;;;;;;25.75;22.75;;;;;39.91;33.78;100890.81;4998591;28;45404;-46
2023/08/18 08:47:08;;;;;;;;;18.40;17.20;;;;;38.42;35.87;100894.69;4998616;28;45440;-46
2023/08/18 08:49:35;;;;;;;;;15.25;15.00;;;;;36.81;38.47;100889.88;4998536;28;45568;-45
2023/08/18 08:52:13;;;;;;;;;20.60;16.60;;;;;35.38;40.80;100886.97;4998656;28;45342;-46
2023/08/18 08:54:45;;;;;;;;;18.40;18.00;;;;;34.62;42.95;100886.53;4998438;28;45403;-43
2023/08/18 08:57:13;;;;;;;;;16.40;12.80;;;;;33.69;44.54;100886.34;4998253;28;45385;-47
2023/08/18 08:59:38;;;;;;;;;15.60;15.60;;;;;32.95;45.41;100889.50;4998328;28;45518;-44
2023/08/18 09:02:04;;;;;;;;;16.50;14.00;;;;;32.43;46.41;100891.09;4998120;28;45496;-45
2023/08/18 09:04:29;;;;;;;;;18.50;18.00;;;;;32.02;47.31;100885.06;4997961;28;45295;-45
2023/08/18 09:06:55;;;;;;;;;13.75;13.75;;;;;31.97;47.94;100888.69;4998415;28;45377;-45
2023/08/18 09:09:20;;;;;;;;;34.25;29.50;;;;;33.17;45.59;100882.63;4998192;28;45298;-46
2023/08/18 09:11:47;;;;;;;;;18.25;18.00;;;;;34.77;43.07;100863.34;4997886;28;45766;-44
2023/08/18 09:14:13;;;;;;;;;14.60;14.20;;;;;37.38;38.98;100861.34;4997857;28;45404;-43
2023/08/18 09:16:39;;;;;;;;;15.80;12.00;;;;;39.73;35.26;100867.84;4998058;28;45439;-43
2023/08/18 09:19:04;;;;;;;;;16.00;15.25;;;;;42.04;31.89;100856.28;4998170;28;45463;-45
2023/08/18 09:21:33;;;;;;;;;20.75;20.00;;;;;42.95;30.50;100850.69;4997973;28;45329;-41
2023/08/18 09:23:58;;;;;;;;;17.20;16.60;;;;;42.89;29.82;100856.91;4998002;28;45611;-43
2023/08/18 09:26:24;;;;;;;;;17.00;14.50;;;;;43.43;29.31;100867.34;4998044;28;45274;-44
2023/08/18 09:28:50;;;;;;;;;17.50;16.25;;;;;43.95;28.47;100854.84;4997960;28;45362;-46
2023/08/18 09:31:15;;;;;;;;;15.60;14.00;;;;;43.88;29.00;100865.94;4997772;28;46290;-47
2023/08/18 09:33:41;;;;;;;;;21.00;17.75;;;;;43.68;29.34;100865.13;4997626;28;45290;-46
2023/08/18 09:36:11;;;;;;;;;14.80;13.20;;;;;44.57;29.82;100852.78;4997807;28;45491;-45
2023/08/18 09:38:40;;;;;;;;;17.00;17.00;;;;;46.58;24.99;100870.28;4998164;28;45413;-46
2023/08/18 09:41:07;;;;;;;;;14.80;13.00;;;;;48.08;24.19;100866.28;4997574;28;46117;-45
2023/08/18 09:43:32;;;;;;;;;16.20;15.20;;;;;49.37;22.46;100869.84;4997051;28;45427;-46
2023/08/18 09:45:59;;;;;;;;;15.50;13.75;;;;;50.12;22.02;100874.31;4997810;28;45377;-48
2023/08/18 09:48:27;;;;;;;;;15.60;13.00;;;;;51.05;20.77;100865.84;4997926;28;45488;-48
2023/08/18 09:50:57;;;;;;;;;14.00;12.80;;;;;50.98;21.23;100856.63;4997521;28;45433;-49
2023/08/18 09:53:29;;;;;;;;;13.60;13.60;;;;;49.87;22.76;100849.84;4997621;28;45702;-47
2023/08/18 09:56:03;;;;;;;;;15.80;14.40;;;;;48.91;22.28;100841.69;4997451;28;45295;-47
2023/08/18 09:58:35;;;;;;;;;17.00;13.00;;;;;48.25;23.26;100842.09;4997628;28;45246;-47
2023/08/18 10:01:05;;;;;;;;;13.80;13.80;;;;;46.49;25.30;100842.44;4997325;28;46267;-45
2023/08/18 10:03:34;;;;;;;;;16.00;14.60;;;;;44.61;26.74;100836.81;4997543;28;45377;-47
2023/08/18 10:06:00;;;;;;;;;16.00;12.60;;;;;42.85;28.73;100838.03;4997695;28;45448;-46
2023/08/18 10:08:26;;;;;;;;;13.60;13.60;;;;;41.93;30.81;100836.47;4997682;28;45308;-44
2023/08/18 10:10:52;;;;;;;;;14.40;14.40;;;;;41.77;30.01;100835.56;4997177;28;47045;-46
2023/08/18 10:13:18;;;;;;;;;14.50;12.75;;;;;40.67;31.90;100830.16;4997391;28;45326;-43
2023/08/18 10:15:45;;;;;;;;;14.00;12.00;;;;;39.57;33.50;100836.16;4997194;28;45540;-44
2023/08/18 10:18:11;;;;;;;;;14.40;14.40;;;;;38.66;34.43;100831.00;4997454;28;45326;-46
2023/08/18 10:20:50;;;;;;;;;13.20;13.20;;;;;37.73;35.86;100844.75;4996825;28;46271;-48
2023/08/18 10:23:17;;;;;;;;;14.60;14.60;;;;;37.17;37.51;100836.19;4997028;28;45370;-47
2023/08/18 10:25:49;;;;;;;;;15.60;13.40;;;;;36.52;38.23;100829.44;4997165;28;45329;-48
2023/08/18 10:28:17;;;;;;;;;15.20;12.80;;;;;35.97;38.97;100832.50;4997319;28;45392;-42
2023/08/18 10:30:50;;;;;;;;;11.40;11.40;;;;;35.40;39.19;100827.47;4996596;28;46628;-46
2023/08/18 10:33:35;;;;;;;;;11.60;11.60;;;;;34.99;39.97;100816.47;4996924;28;45541;-46
2023/08/18 10:36:03;;;;;;;;;11.80;10.60;;;;;34.99;40.34;100816.47;4996648;28;45326;-48
2023/08/18 10:38:29;;;;;;;;;15.00;12.60;;;;;36.09;39.39;100815.31;4997092;28;45371;-45
2023/08/18 10:40:55;;;;;;;;;16.60;15.40;;;;;35.89;38.85;100817.44;4996459;28;46342;-48
2023/08/18 10:43:27;;;;;;;;;15.60;11.40;;;;;35.05;40.38;100819.94;4996859;28;45456;-45
2023/08/18 10:45:57;;;;;;;;;15.20;12.00;;;;;34.46;41.07;100827.94;4996941;28;45409;-45
2023/08/18 10:48:28;;;;;;;;;15.00;13.80;;;;;34.00;42.68;100821.31;4997074;28;45346;-46
2023/08/18 10:50:53;;;;;;;;;13.00;13.00;;;;;33.90;43.42;100815.13;4996756;28;45355;-44
2023/08/18 10:53:18;;;;;;;;;14.75;12.75;;;;;33.87;42.51;100812.97;4996473;28;45445;-43
2023/08/18 10:55:44;;;;;;;;;10.75;10.75;;;;;33.86;42.55;100817.66;4996840;28;45242;-45
2023/08/18 10:58:09;;;;;;;;;13.50;12.50;;;;;33.64;44.11;100809.19;4996856;28;45408;-47
2023/08/18 11:00:36;;;;;;;;;13.50;12.25;;;;;33.47;44.52;100824.34;4996217;28;45362;-46
2023/08/18 11:03:06;;;;;;;;;11.00;10.80;;;;;33.24;45.35;100814.16;4996525;28;45816;-45
2023/08/18 11:05:31;;;;;;;;;14.00;11.20;;;;;33.19;45.74;100825.25;4996666;28;45503;-45